Time,TemperatureF,DewpointF,PressureIn,WindDirection,WindDirectionDegrees,WindSpeedMPH,WindSpeedGustMPH,Humidity,HourlyPrecipIn,Conditions,Clouds,dailyrainin,SoftwareType,DateUTC
2015-03-03 00:02:00,24.8,11.3,30.04,WNW,283,0.0,2.0,56,0.00,,,0.00,meteobridge,2015-03-03 05:02:00,
2015-03-03 00:07:00,25.0,11.5,30.04,West,264,0.0,4.0,56,0.00,,,0.00,meteobridge,2015-03-03 05:07:00,
2015-03-03 00:12:00,24.8,11.3,30.04,NNE,21,2.9,4.0,56,0.00,,,0.00,meteobridge,2015-03-03 05:12:00,
2015-03-03 00:17:00,24.8,11.3,30.04,NW,310,0.0,1.0,56,0.00,,,0.00,meteobridge,2015-03-03 05:17:00,
2015-03-03 00:22:00,24.6,11.5,30.04,WNW,300,2.0,7.0,57,0.00,,,0.00,meteobridge,2015-03-03 05:22:00,
2015-03-03 00:27:00,24.6,11.5,30.04,WSW,240,0.0,2.0,57,0.00,,,0.00,meteobridge,2015-03-03 05:27:00,
2015-03-03 00:32:00,24.4,11.8,30.04,NW,316,0.0,3.0,58,0.00,,,0.00,meteobridge,2015-03-03 05:32:00,
2015-03-03 00:37:00,24.1,11.5,30.04,West,280,0.0,2.0,58,0.00,,,0.00,meteobridge,2015-03-03 05:37:00,
2015-03-03 00:42:00,23.9,11.7,30.05,SE,127,0.9,2.0,59,0.00,,,0.00,meteobridge,2015-03-03 05:42:00,
2015-03-03 00:47:00,23.5,11.3,30.04,West,271,2.0,2.0,59,0.00,,,0.00,meteobridge,2015-03-03 05:47:00,
2015-03-03 00:52:00,23.4,11.1,30.05,West,261,0.0,1.0,59,0.00,,,0.00,meteobridge,2015-03-03 05:52:00,
2015-03-03 00:57:00,23.4,11.1,30.05,West,261,0.0,1.0,59,0.00,,,0.00,meteobridge,2015-03-03 05:57:00,
2015-03-03 01:02:00,23.2,10.9,30.05,West,261,0.0,0.0,59,0.00,,,0.00,meteobridge,2015-03-03 06:02:00,
2015-03-03 01:07:00,23.0,10.8,30.05,NW,314,0.0,3.0,59,0.00,,,0.00,meteobridge,2015-03-03 06:07:00,
2015-03-03 01:12:00,22.8,10.9,30.05,NNW,342,0.0,1.0,60,0.00,,,0.00,meteobridge,2015-03-03 06:12:00,
2015-03-03 01:17:00,22.8,10.6,30.05,WNW,288,0.0,4.0,59,0.00,,,0.00,meteobridge,2015-03-03 06:17:00,
2015-03-03 01:22:00,22.6,10.8,30.05,WNW,288,0.0,1.0,60,0.00,,,0.00,meteobridge,2015-03-03 06:22:00,
2015-03-03 01:27:00,22.5,10.8,30.05,WNW,288,0.0,0.0,60,0.00,,,0.00,meteobridge,2015-03-03 06:27:00,
2015-03-03 01:33:00,22.3,10.9,30.05,NW,321,0.0,0.0,61,0.00,,,0.00,meteobridge,2015-03-03 06:33:00,
2015-03-03 01:38:00,21.9,10.9,30.05,NW,321,0.0,0.0,62,0.00,,,0.00,meteobridge,2015-03-03 06:38:00,
2015-03-03 01:43:00,21.6,10.6,30.06,North,355,0.0,0.0,62,0.00,,,0.00,meteobridge,2015-03-03 06:43:00,
2015-03-03 01:48:00,21.6,10.6,30.06,NNE,32,0.0,0.0,62,0.00,,,0.00,meteobridge,2015-03-03 06:48:00,
2015-03-03 01:53:00,21.4,10.8,30.05,NNE,15,0.0,0.0,63,0.00,,,0.00,meteobridge,2015-03-03 06:53:00,
2015-03-03 01:58:00,21.2,10.6,30.05,WNW,302,2.9,3.0,63,0.00,,,0.00,meteobridge,2015-03-03 06:58:00,
2015-03-03 02:03:00,21.4,10.8,30.05,North,5,0.0,1.0,63,0.00,,,0.00,meteobridge,2015-03-03 07:03:00,
2015-03-03 02:08:00,21.0,10.4,30.05,NNW,336,0.0,1.0,63,0.00,,,0.00,meteobridge,2015-03-03 07:08:00,
2015-03-03 02:13:00,21.0,10.4,30.04,WNW,286,2.0,2.0,63,0.00,,,0.00,meteobridge,2015-03-03 07:13:00,
2015-03-03 02:18:00,21.0,10.4,30.05,SSE,155,0.9,2.0,63,0.00,,,0.00,meteobridge,2015-03-03 07:18:00,
2015-03-03 02:23:00,20.8,10.6,30.05,ESE,123,2.9,3.0,64,0.00,,,0.00,meteobridge,2015-03-03 07:23:00,
2015-03-03 02:28:00,20.7,10.4,30.05,ESE,114,0.0,0.0,64,0.00,,,0.00,meteobridge,2015-03-03 07:28:00,
2015-03-03 02:33:00,20.7,10.4,30.05,NNW,340,0.0,1.0,64,0.00,,,0.00,meteobridge,2015-03-03 07:33:00,
2015-03-03 02:38:00,20.3,10.4,30.05,NE,52,0.0,0.0,65,0.00,,,0.00,meteobridge,2015-03-03 07:38:00,
2015-03-03 02:43:00,19.9,10.4,30.05,East,92,0.0,1.0,66,0.00,,,0.00,meteobridge,2015-03-03 07:43:00,
2015-03-03 02:49:00,19.8,10.2,30.04,NNW,327,0.0,2.0,66,0.00,,,0.00,meteobridge,2015-03-03 07:49:00,
2015-03-03 02:54:00,19.8,10.2,30.05,East,83,2.0,2.0,66,0.00,,,0.00,meteobridge,2015-03-03 07:54:00,
2015-03-03 02:59:00,19.6,10.0,30.04,NE,40,0.0,1.0,66,0.00,,,0.00,meteobridge,2015-03-03 07:59:00,
2015-03-03 03:04:00,19.4,10.2,30.05,NE,40,0.0,0.0,67,0.00,,,0.00,meteobridge,2015-03-03 08:04:00,
2015-03-03 03:09:00,19.2,10.0,30.05,NE,40,0.0,0.0,67,0.00,,,0.00,meteobridge,2015-03-03 08:09:00,
2015-03-03 03:14:00,18.9,10.0,30.06,ENE,66,0.0,0.0,68,0.00,,,0.00,meteobridge,2015-03-03 08:14:00,
2015-03-03 03:19:00,18.7,9.9,30.05,ENE,66,0.0,0.0,68,0.00,,,0.00,meteobridge,2015-03-03 08:19:00,
2015-03-03 03:24:00,18.5,10.0,30.06,ENE,66,0.0,0.0,69,0.00,,,0.00,meteobridge,2015-03-03 08:24:00,
2015-03-03 03:29:00,18.3,9.9,30.06,ENE,66,0.0,0.0,69,0.00,,,0.00,meteobridge,2015-03-03 08:29:00,
2015-03-03 03:34:00,18.3,9.9,30.05,ENE,66,0.0,0.0,69,0.00,,,0.00,meteobridge,2015-03-03 08:34:00,
2015-03-03 03:39:00,18.1,9.7,30.05,ENE,66,0.0,0.0,69,0.00,,,0.00,meteobridge,2015-03-03 08:39:00,
2015-03-03 03:44:00,18.0,9.5,30.05,ENE,66,0.0,0.0,69,0.00,,,0.00,meteobridge,2015-03-03 08:44:00,
2015-03-03 03:49:00,17.8,9.7,30.05,ENE,66,0.0,0.0,70,0.00,,,0.00,meteobridge,2015-03-03 08:49:00,
2015-03-03 03:54:00,17.4,9.7,30.06,ESE,117,0.0,1.0,71,0.00,,,0.00,meteobridge,2015-03-03 08:54:00,
2015-03-03 03:59:00,17.2,9.5,30.06,ESE,117,0.0,0.0,71,0.00,,,0.00,meteobridge,2015-03-03 08:59:00,
2015-03-03 04:04:00,17.1,9.7,30.06,ESE,117,0.9,1.0,72,0.00,,,0.00,meteobridge,2015-03-03 09:04:00,
2015-03-03 04:09:00,17.1,9.7,30.06,East,101,0.9,2.0,72,0.00,,,0.00,meteobridge,2015-03-03 09:09:00,
2015-03-03 04:14:00,16.9,9.7,30.06,East,101,0.0,1.0,73,0.00,,,0.00,meteobridge,2015-03-03 09:14:00,
2015-03-03 04:19:00,16.9,9.7,30.06,East,101,0.0,0.0,73,0.00,,,0.00,meteobridge,2015-03-03 09:19:00,
2015-03-03 04:24:00,16.9,9.5,30.06,East,101,0.0,0.0,72,0.00,,,0.00,meteobridge,2015-03-03 09:24:00,
2015-03-03 04:29:00,16.5,9.1,30.06,East,101,0.0,0.0,72,0.00,,,0.00,meteobridge,2015-03-03 09:29:00,
2015-03-03 04:35:00,16.2,8.8,30.07,East,101,0.0,0.0,72,0.00,,,0.00,meteobridge,2015-03-03 09:35:00,
2015-03-03 04:40:00,16.0,8.8,30.07,East,101,0.0,0.0,73,0.00,,,0.00,meteobridge,2015-03-03 09:40:00,
2015-03-03 04:45:00,15.6,8.6,30.07,East,101,0.0,0.0,73,0.00,,,0.00,meteobridge,2015-03-03 09:45:00,
2015-03-03 04:50:00,15.4,8.6,30.07,East,100,0.0,0.0,74,0.00,,,0.00,meteobridge,2015-03-03 09:50:00,
2015-03-03 04:55:00,15.1,8.2,30.08,East,101,0.0,0.0,74,0.00,,,0.00,meteobridge,2015-03-03 09:55:00,
2015-03-03 05:00:00,14.7,7.9,30.07,East,101,0.0,0.0,74,0.00,,,0.00,meteobridge,2015-03-03 10:00:00,
2015-03-03 05:05:00,14.7,8.6,30.07,East,93,0.0,0.0,76,0.00,,,0.00,meteobridge,2015-03-03 10:05:00,
2015-03-03 05:10:00,14.7,8.6,30.07,ESE,103,0.0,0.0,76,0.00,,,0.00,meteobridge,2015-03-03 10:10:00,
2015-03-03 05:15:00,14.7,8.6,30.06,NNE,32,0.0,0.0,76,0.00,,,0.00,meteobridge,2015-03-03 10:15:00,
2015-03-03 05:20:00,14.9,8.8,30.07,SE,136,0.9,1.0,76,0.00,,,0.00,meteobridge,2015-03-03 10:20:00,
2015-03-03 05:25:00,14.7,8.6,30.06,West,280,0.0,2.0,76,0.00,,,0.00,meteobridge,2015-03-03 10:25:00,
2015-03-03 05:30:00,14.4,7.9,30.07,West,280,0.9,1.0,75,0.00,,,0.00,meteobridge,2015-03-03 10:30:00,
2015-03-03 05:35:00,14.4,8.4,30.07,West,281,0.0,1.0,77,0.00,,,0.00,meteobridge,2015-03-03 10:35:00,
2015-03-03 05:40:00,14.4,8.4,30.07,West,280,0.0,0.0,77,0.00,,,0.00,meteobridge,2015-03-03 10:40:00,
2015-03-03 05:45:00,14.4,8.4,30.07,West,280,0.0,0.0,77,0.00,,,0.00,meteobridge,2015-03-03 10:45:00,
2015-03-03 05:50:00,14.0,7.9,30.08,West,280,0.0,0.0,76,0.00,,,0.00,meteobridge,2015-03-03 10:50:00,
2015-03-03 05:55:00,13.5,7.3,30.09,West,280,0.0,0.0,76,0.00,,,0.00,meteobridge,2015-03-03 10:55:00,
2015-03-03 06:00:00,13.1,7.0,30.08,WNW,294,0.0,1.0,76,0.00,,,0.00,meteobridge,2015-03-03 11:00:00,
2015-03-03 06:06:00,12.7,7.2,30.09,NW,307,0.0,0.0,78,0.00,,,0.00,meteobridge,2015-03-03 11:06:00,
2015-03-03 06:11:00,12.7,7.5,30.09,NW,307,0.0,0.0,79,0.00,,,0.00,meteobridge,2015-03-03 11:11:00,
2015-03-03 06:16:00,12.7,7.5,30.09,NW,307,0.0,0.0,79,0.00,,,0.00,meteobridge,2015-03-03 11:16:00,
2015-03-03 06:21:00,12.7,7.7,30.09,NW,307,0.0,0.0,80,0.00,,,0.00,meteobridge,2015-03-03 11:21:00,
2015-03-03 06:26:00,12.6,7.5,30.09,NW,307,0.0,0.0,80,0.00,,,0.00,meteobridge,2015-03-03 11:26:00,
2015-03-03 06:31:00,12.6,7.5,30.09,NW,308,0.0,0.0,80,0.00,,,0.00,meteobridge,2015-03-03 11:31:00,
2015-03-03 06:36:00,12.6,7.9,30.09,NW,308,0.0,0.0,81,0.00,,,0.00,meteobridge,2015-03-03 11:36:00,
2015-03-03 06:41:00,12.9,8.2,30.09,NW,308,0.0,0.0,81,0.00,,,0.00,meteobridge,2015-03-03 11:41:00,
2015-03-03 06:46:00,13.3,8.8,30.09,NW,308,0.0,0.0,82,0.00,,,0.00,meteobridge,2015-03-03 11:46:00,
2015-03-03 06:51:00,13.6,9.1,30.09,NW,308,0.0,0.0,82,0.00,,,0.00,meteobridge,2015-03-03 11:51:00,
2015-03-03 06:56:00,14.0,9.5,30.09,NW,308,0.0,0.0,82,0.00,,,0.00,meteobridge,2015-03-03 11:56:00,
2015-03-03 07:01:00,14.4,9.7,30.09,NW,313,0.0,0.0,81,0.00,,,0.00,meteobridge,2015-03-03 12:01:00,
2015-03-03 07:06:00,14.7,10.0,30.09,NW,314,0.0,0.0,81,0.00,,,0.00,meteobridge,2015-03-03 12:06:00,
2015-03-03 07:12:00,15.1,10.0,30.09,NW,310,0.0,0.0,80,0.00,,,0.00,meteobridge,2015-03-03 12:12:00,
2015-03-03 07:17:00,14.7,8.8,30.09,NW,310,0.0,0.0,77,0.00,,,0.00,meteobridge,2015-03-03 12:17:00,
2015-03-03 07:22:00,14.7,9.1,30.09,NW,309,0.0,0.0,78,0.00,,,0.00,meteobridge,2015-03-03 12:22:00,
2015-03-03 07:27:00,14.7,9.1,30.09,NW,309,0.0,0.0,78,0.00,,,0.00,meteobridge,2015-03-03 12:27:00,
2015-03-03 07:32:00,15.1,9.7,30.09,NW,309,0.0,0.0,79,0.00,,,0.00,meteobridge,2015-03-03 12:32:00,
2015-03-03 07:37:00,15.3,9.9,30.09,NW,309,0.0,0.0,79,0.00,,,0.00,meteobridge,2015-03-03 12:37:00,
2015-03-03 07:42:00,15.6,10.2,30.09,NW,310,0.0,0.0,79,0.00,,,0.00,meteobridge,2015-03-03 12:42:00,
2015-03-03 07:47:00,16.2,10.6,30.09,NW,309,0.0,0.0,78,0.00,,,0.00,meteobridge,2015-03-03 12:47:00,
2015-03-03 07:52:00,16.5,10.9,30.10,NW,309,0.0,0.0,78,0.00,,,0.00,meteobridge,2015-03-03 12:52:00,
2015-03-03 07:57:00,17.2,10.9,30.10,West,281,0.0,2.0,76,0.00,,,0.00,meteobridge,2015-03-03 12:57:00,
2015-03-03 08:02:00,17.6,10.8,30.11,West,279,0.0,0.0,74,0.00,,,0.00,meteobridge,2015-03-03 13:02:00,
2015-03-03 08:07:00,18.0,10.8,30.11,WNW,286,0.0,2.0,73,0.00,,,0.00,meteobridge,2015-03-03 13:07:00,
2015-03-03 08:12:00,18.3,10.8,30.11,SW,218,2.0,2.0,72,0.00,,,0.00,meteobridge,2015-03-03 13:12:00,
2015-03-03 08:17:00,18.9,10.9,30.11,SW,217,0.0,0.0,71,0.00,,,0.00,meteobridge,2015-03-03 13:17:00,
2015-03-03 08:22:00,19.0,10.9,30.11,SW,217,0.0,0.0,70,0.00,,,0.00,meteobridge,2015-03-03 13:22:00,
2015-03-03 08:27:00,19.6,11.5,30.12,SW,217,0.0,0.0,70,0.00,,,0.00,meteobridge,2015-03-03 13:27:00,
2015-03-03 08:32:00,20.1,11.7,30.11,SW,236,0.0,0.0,69,0.00,,,0.00,meteobridge,2015-03-03 13:32:00,
2015-03-03 08:37:00,20.5,11.3,30.11,West,273,0.0,0.0,67,0.00,,,0.00,meteobridge,2015-03-03 13:37:00,
2015-03-03 08:43:00,21.0,11.8,30.11,SW,229,0.0,0.0,67,0.00,,,0.00,meteobridge,2015-03-03 13:43:00,
2015-03-03 08:48:00,21.6,12.0,30.11,SW,231,0.0,0.0,66,0.00,,,0.00,meteobridge,2015-03-03 13:48:00,
2015-03-03 08:53:00,21.9,12.0,30.11,WNW,294,0.9,3.0,65,0.00,,,0.00,meteobridge,2015-03-03 13:53:00,
2015-03-03 08:58:00,22.5,12.2,30.10,WNW,292,2.0,2.0,64,0.00,,,0.00,meteobridge,2015-03-03 13:58:00,
2015-03-03 09:03:00,22.8,12.6,30.10,WNW,292,0.0,0.0,64,0.00,,,0.00,meteobridge,2015-03-03 14:03:00,
2015-03-03 09:08:00,23.4,12.6,30.09,SSW,202,0.9,2.0,63,0.00,,,0.00,meteobridge,2015-03-03 14:08:00,
2015-03-03 09:13:00,23.7,12.2,30.08,NNW,329,0.9,2.0,61,0.00,,,0.00,meteobridge,2015-03-03 14:13:00,
2015-03-03 09:18:00,24.3,12.7,30.09,SSE,148,0.0,2.0,61,0.00,,,0.00,meteobridge,2015-03-03 14:18:00,
2015-03-03 09:23:00,24.6,12.7,30.09,NE,39,2.0,3.0,60,0.00,,,0.00,meteobridge,2015-03-03 14:23:00,
2015-03-03 09:28:00,25.0,12.4,30.09,NNW,329,0.9,3.0,58,0.00,,,0.00,meteobridge,2015-03-03 14:28:00,
2015-03-03 09:33:00,25.2,12.9,30.09,North,5,2.0,2.0,59,0.00,,,0.00,meteobridge,2015-03-03 14:33:00,
2015-03-03 09:38:00,25.2,12.0,30.08,SSE,161,0.0,1.0,57,0.00,,,0.00,meteobridge,2015-03-03 14:38:00,
2015-03-03 09:43:00,25.5,12.4,30.08,SE,146,0.0,0.0,57,0.00,,,0.00,meteobridge,2015-03-03 14:43:00,
2015-03-03 09:48:00,25.9,12.7,30.07,North,351,0.9,2.0,57,0.00,,,0.00,meteobridge,2015-03-03 14:48:00,
2015-03-03 09:54:00,26.1,12.9,30.08,NE,36,0.0,1.0,57,0.00,,,0.00,meteobridge,2015-03-03 14:54:00,
2015-03-03 09:59:00,26.2,12.2,30.07,SSW,201,0.9,1.0,55,0.00,,,0.00,meteobridge,2015-03-03 14:59:00,
2015-03-03 10:04:00,26.8,12.7,30.08,ESE,117,0.9,2.0,55,0.00,,,0.00,meteobridge,2015-03-03 15:04:00,
2015-03-03 10:09:00,27.0,13.3,30.08,SE,131,0.9,4.0,56,0.00,,,0.00,meteobridge,2015-03-03 15:09:00,
2015-03-03 10:14:00,27.0,12.9,30.07,WSW,240,2.9,5.0,55,0.00,,,0.00,meteobridge,2015-03-03 15:14:00,
2015-03-03 10:19:00,26.8,13.1,30.07,SE,144,0.0,3.0,56,0.00,,,0.00,meteobridge,2015-03-03 15:19:00,
2015-03-03 10:24:00,27.0,13.3,30.07,ESE,122,0.9,2.0,56,0.00,,,0.00,meteobridge,2015-03-03 15:24:00,
2015-03-03 10:29:00,27.3,13.6,30.07,SSW,198,0.0,2.0,56,0.00,,,0.00,meteobridge,2015-03-03 15:29:00,
2015-03-03 10:34:00,27.7,13.6,30.06,East,94,2.0,4.0,55,0.00,,,0.00,meteobridge,2015-03-03 15:34:00,
2015-03-03 10:39:00,27.7,13.3,30.06,WSW,245,0.9,4.0,54,0.00,,,0.00,meteobridge,2015-03-03 15:39:00,
2015-03-03 10:44:00,27.9,13.8,30.06,SW,214,0.0,1.0,55,0.00,,,0.00,meteobridge,2015-03-03 15:44:00,
2015-03-03 10:50:00,27.9,13.5,30.06,SSW,213,4.0,9.0,54,0.00,,,0.00,meteobridge,2015-03-03 15:50:00,
2015-03-03 10:55:00,27.9,13.8,30.06,South,173,2.0,6.0,55,0.00,,,0.00,meteobridge,2015-03-03 15:55:00,
2015-03-03 11:00:00,28.0,13.5,30.06,SW,217,0.9,5.0,54,0.00,,,0.00,meteobridge,2015-03-03 16:00:00,
2015-03-03 11:05:00,28.2,14.2,30.06,SSW,203,0.9,5.0,55,0.00,,,0.00,meteobridge,2015-03-03 16:05:00,
2015-03-03 11:10:00,28.4,14.7,30.05,SSW,203,4.9,5.0,56,0.00,,,0.00,meteobridge,2015-03-03 16:10:00,
2015-03-03 11:15:00,28.6,14.5,30.05,SSE,162,2.0,4.0,55,0.00,,,0.00,meteobridge,2015-03-03 16:15:00,
2015-03-03 11:20:00,28.8,15.1,30.05,South,182,0.0,2.0,56,0.00,,,0.00,meteobridge,2015-03-03 16:20:00,
2015-03-03 11:25:00,28.9,14.7,30.05,SSE,147,2.0,4.0,55,0.00,,,0.00,meteobridge,2015-03-03 16:25:00,
2015-03-03 11:30:00,28.9,15.3,30.04,SW,230,2.9,3.0,56,0.00,,,0.00,meteobridge,2015-03-03 16:30:00,
2015-03-03 11:35:00,29.1,15.4,30.04,SSW,195,0.9,4.0,56,0.00,,,0.00,meteobridge,2015-03-03 16:35:00,
2015-03-03 11:40:00,29.5,15.8,30.04,SSW,202,2.0,4.0,56,0.00,,,0.00,meteobridge,2015-03-03 16:40:00,
2015-03-03 11:45:00,29.5,15.8,30.04,SSW,199,6.0,6.0,56,0.00,,,0.00,meteobridge,2015-03-03 16:45:00,